Amidon, North Dakota
Current Conditions -  °F | °C
As of 10:32 PM on Sunday 21 Dec 2014 (Local Time) from KDIK Reporting Station
Overcast Overcast  
Wind Chill: -1°   Ceiling: 1100
Heat Index:   Visibility: 10mi
Dew Point:   Wind: 9mph
Humidity: 89%   Direction: 260°W
Pressure: 29.37"   Gusts: NA
Location:  46.48°N, 103.32°W
Report Text: KDIK 220532Z AUTO 26008KT 10SM BKN011 OVC019 03/01 A2937 RMK AO2 UPB09E18 P0000 T00280011
Loading
Personal Weather Stations






























Interactive Weather Map New forecast layout! Learn more

10-Day Weather Forecast

Advertisements
Track Severe Weather on mobile